createdAt,value
2022-07-25T00:00:13.227Z,23.4
2022-07-25T00:05:59.203Z,23.3
2022-07-25T00:11:39.816Z,23.2
2022-07-25T00:17:23.021Z,23.1
2022-07-25T00:23:03.230Z,22.9
2022-07-25T00:28:43.503Z,22.6
2022-07-25T00:34:26.342Z,22.4
2022-07-25T00:40:06.985Z,22.4
2022-07-25T00:45:49.879Z,22.4
2022-07-25T00:51:30.141Z,22.5
2022-07-25T00:57:10.914Z,22.6
2022-07-25T01:02:51.636Z,22.6
2022-07-25T01:08:33.106Z,22.5
2022-07-25T01:14:13.422Z,22.4
2022-07-25T01:19:53.803Z,22.3
2022-07-25T01:25:38.833Z,22.2
2022-07-25T01:31:19.857Z,22
2022-07-25T01:37:01.886Z,21.7
2022-07-25T01:42:42.180Z,21.5
2022-07-25T01:48:22.483Z,21.5
2022-07-25T01:54:09.102Z,21.4
2022-07-25T01:59:50.941Z,21.1
2022-07-25T02:05:31.452Z,21
2022-07-25T02:11:11.810Z,20.8
2022-07-25T02:16:52.012Z,20.6
2022-07-25T02:22:36.338Z,20.5
2022-07-25T02:28:16.834Z,20.5
2022-07-25T02:39:37.301Z,20.4
2022-07-25T02:50:57.393Z,20.5
2022-07-25T02:56:37.661Z,20.3
2022-07-25T03:07:18.931Z,20.4
2022-07-25T03:12:59.234Z,20.4
2022-07-25T03:18:39.826Z,20.3
2022-07-25T03:24:20.521Z,20.2
2022-07-25T03:30:00.923Z,20
2022-07-25T03:35:41.629Z,20
2022-07-25T03:41:22.176Z,20.4
2022-07-25T03:47:02.808Z,20.8
2022-07-25T03:52:43.405Z,21.1
2022-07-25T03:58:23.973Z,21.4
2022-07-25T04:04:04.575Z,21.5
2022-07-25T04:09:48.478Z,21.9
2022-07-25T04:15:28.664Z,22.3
2022-07-25T04:21:11.462Z,22.6
2022-07-25T04:26:51.833Z,22.9
2022-07-25T04:32:32.156Z,23.2
2022-07-25T04:38:12.549Z,23.6
2022-07-25T04:43:53.459Z,24.9
2022-07-25T04:49:33.949Z,25.1
2022-07-25T04:55:13.967Z,25.2
2022-07-25T05:00:54.061Z,25.3
2022-07-25T05:06:34.656Z,25.4
2022-07-25T05:12:18.159Z,25.7
2022-07-25T05:17:58.432Z,26
2022-07-25T05:23:38.913Z,26.5
2022-07-25T05:29:19.272Z,27.3
2022-07-25T05:34:59.956Z,28.8
2022-07-25T05:40:40.406Z,29.3
2022-07-25T05:46:20.526Z,28.7
2022-07-25T05:52:00.962Z,27.9
2022-07-25T05:57:41.231Z,27.5
2022-07-25T06:03:21.183Z,27.5
2022-07-25T06:09:01.951Z,27.5
2022-07-25T06:14:57.784Z,27.7
2022-07-25T06:20:40.452Z,27.9
2022-07-25T06:26:20.657Z,28
2022-07-25T06:32:00.957Z,28.3
2022-07-25T06:37:42.845Z,29
2022-07-25T06:43:22.785Z,28.6
2022-07-25T06:49:03.405Z,28.5
2022-07-25T06:54:44.697Z,29.3
2022-07-25T07:00:25.434Z,30
2022-07-25T07:06:09.150Z,29.8
2022-07-25T07:11:49.354Z,29.1
2022-07-25T07:17:29.496Z,29.4
2022-07-25T07:23:09.619Z,28.8
2022-07-25T07:28:49.749Z,27.9
2022-07-25T07:34:30.115Z,27.9
2022-07-25T07:40:10.181Z,27.6
2022-07-25T07:45:58.315Z,27.4
2022-07-25T07:51:38.469Z,27.2
2022-07-25T07:57:18.226Z,26.5
2022-07-25T08:02:58.311Z,26.2
2022-07-25T08:08:39.520Z,26.6
2022-07-25T08:14:19.706Z,26.6
2022-07-25T08:20:14.579Z,26.4
2022-07-25T08:26:20.702Z,26.4
2022-07-25T08:32:02.225Z,28.7
2022-07-25T08:37:43.229Z,31.1
2022-07-25T08:43:23.433Z,30.7
2022-07-25T08:49:02.707Z,29.6
2022-07-25T08:54:45.783Z,29.3
2022-07-25T09:00:36.411Z,31.6
2022-07-25T09:06:16.919Z,31
2022-07-25T09:11:56.503Z,29.6
2022-07-25T09:17:36.485Z,28.7
2022-07-25T09:23:20.174Z,27.6
2022-07-25T09:28:59.978Z,26.5
2022-07-25T09:34:40.410Z,25.9
2022-07-25T09:40:20.519Z,26.1
2022-07-25T09:46:01.020Z,26.1
2022-07-25T09:51:44.779Z,25.7
2022-07-25T09:57:25.150Z,25.6
2022-07-25T10:03:06.260Z,25.9
2022-07-25T10:08:47.696Z,26.8
2022-07-25T10:14:28.030Z,27.4
2022-07-25T10:20:12.238Z,28.5
2022-07-25T10:25:59.032Z,30.2
2022-07-25T10:31:49.746Z,29.9
2022-07-25T10:37:39.831Z,29.4
2022-07-25T10:43:32.644Z,31.2
2022-07-25T10:49:37.448Z,31
2022-07-25T10:56:37.197Z,31.4
2022-07-25T11:02:30.061Z,30.8
2022-07-25T11:08:21.916Z,31.8
2022-07-25T11:14:08.608Z,31.3
2022-07-25T11:20:11.623Z,31.5
2022-07-25T11:26:12.845Z,31.8
2022-07-25T11:32:03.949Z,30
2022-07-25T11:37:54.082Z,31
2022-07-25T11:43:41.066Z,30.7
2022-07-25T11:49:27.224Z,32.3
2022-07-25T12:44:44.557Z,30.5
2022-07-25T12:50:24.958Z,32
2022-07-25T12:56:10.716Z,31.4
2022-07-25T13:01:57.451Z,33.3
2022-07-25T13:07:41.485Z,31.3
2022-07-25T13:13:25.052Z,30.5
2022-07-25T13:19:40.314Z,29.2
2022-07-25T13:25:20.665Z,29.9
2022-07-25T13:31:03.715Z,29.8
2022-07-25T13:36:51.200Z,28.8
2022-07-25T13:42:37.749Z,29
2022-07-25T13:48:31.531Z,28.8
2022-07-25T13:54:16.493Z,29.4
2022-07-25T14:00:10.865Z,28.5
2022-07-25T14:06:01.727Z,29
2022-07-25T14:11:43.364Z,28.2
2022-07-25T14:17:39.207Z,27.8
2022-07-25T14:23:41.233Z,26.9
2022-07-25T14:29:21.329Z,26.5
2022-07-25T14:35:10.228Z,26.5
2022-07-25T14:40:51.187Z,25.8
2022-07-25T14:46:31.605Z,25.4
2022-07-25T14:52:12.543Z,24.7
2022-07-25T14:57:52.950Z,25.3
2022-07-25T15:03:37.024Z,25.8
2022-07-25T15:09:18.503Z,26.6
2022-07-25T15:14:59.527Z,26.2
2022-07-25T15:20:45.940Z,26.5
2022-07-25T15:26:26.545Z,27.1
2022-07-25T15:32:07.259Z,27.4
2022-07-25T15:37:48.725Z,27
2022-07-25T15:43:28.787Z,26.2
2022-07-25T15:49:09.237Z,26.3
2022-07-25T15:54:52.271Z,26.4
2022-07-25T16:00:32.523Z,26
2022-07-25T16:06:18.511Z,26
2022-07-25T16:12:02.191Z,25.9
2022-07-25T16:17:43.644Z,25.7
2022-07-25T16:23:26.703Z,25.5
2022-07-25T16:34:54.497Z,25.1
2022-07-25T16:40:34.942Z,25.3
2022-07-25T16:46:15.595Z,25.6
2022-07-25T16:52:00.314Z,25.9
2022-07-25T16:57:55.137Z,25.8
2022-07-25T17:03:35.363Z,25.6
2022-07-25T17:09:15.515Z,25.7
2022-07-25T17:20:00.142Z,25.3
2022-07-25T17:25:41.254Z,25.6
2022-07-25T17:31:24.172Z,25.3
2022-07-25T17:37:05.365Z,25.1
2022-07-25T17:42:45.650Z,25.4
2022-07-25T17:48:29.801Z,24.9
2022-07-25T17:54:11.477Z,24.9
2022-07-25T17:59:52.518Z,24.8
2022-07-25T18:05:33.131Z,24.8
2022-07-25T18:11:13.364Z,24.5
2022-07-25T18:16:53.643Z,24.3
2022-07-25T18:22:40.409Z,24
2022-07-25T18:28:21.489Z,24
2022-07-25T18:34:15.631Z,23.9
2022-07-25T18:40:06.510Z,23.7
2022-07-25T18:45:51.176Z,23.5
2022-07-25T18:51:39.990Z,23.4
2022-07-25T19:03:03.787Z,23.2
2022-07-25T19:14:57.085Z,23.1
2022-07-25T19:20:47.212Z,22.8
2022-07-25T19:26:34.950Z,22.6
2022-07-25T19:32:23.485Z,22.4
2022-07-25T19:38:06.949Z,22.4
2022-07-25T19:43:47.154Z,22.2
2022-07-25T19:49:27.615Z,21.9
2022-07-25T19:55:24.239Z,21.9
2022-07-25T20:01:04.423Z,21.9
2022-07-25T20:06:48.139Z,21.8
2022-07-25T20:12:31.169Z,21.6
2022-07-25T20:18:14.933Z,21.6
2022-07-25T20:24:00.841Z,21.8
2022-07-25T20:29:41.146Z,21.8
2022-07-25T20:35:33.787Z,21.8
2022-07-25T20:46:33.877Z,21.7
2022-07-25T20:52:17.900Z,21.6
2022-07-25T20:57:59.047Z,21.5
2022-07-25T21:03:41.988Z,21.5
2022-07-25T21:09:32.570Z,21.5
2022-07-25T21:15:15.842Z,21.5
2022-07-25T21:20:56.441Z,21.3
2022-07-25T21:26:41.871Z,21.2
2022-07-25T21:32:22.622Z,21.1
2022-07-25T21:38:03.667Z,20.9
2022-07-25T21:44:16.139Z,20.9
2022-07-25T21:50:13.004Z,20.7
2022-07-25T21:56:15.065Z,20.5
2022-07-25T22:01:55.480Z,20.4
2022-07-25T22:07:35.730Z,20.2
2022-07-25T22:13:20.294Z,20.1
2022-07-25T22:19:00.979Z,20
2022-07-25T22:24:46.547Z,20
2022-07-25T22:30:30.408Z,20
2022-07-25T22:36:10.632Z,20
2022-07-25T22:41:50.773Z,19.9
2022-07-25T22:47:31.378Z,19.9
2022-07-25T22:53:11.590Z,19.8
2022-07-25T22:58:51.811Z,19.7
2022-07-25T23:09:36.429Z,19.5
2022-07-25T23:15:16.989Z,19.4
2022-07-25T23:20:57.202Z,19.2
2022-07-25T23:26:38.078Z,19
2022-07-25T23:32:18.421Z,18.9
2022-07-25T23:37:58.724Z,18.8
2022-07-25T23:43:57.847Z,18.6
2022-07-25T23:49:40.310Z,18.5
2022-07-25T23:55:20.432Z,18.4
